createdAt,value
2024-03-12T00:00:59.902Z,4.80
2024-03-12T00:03:29.793Z,4.80
2024-03-12T00:06:00.564Z,4.80
2024-03-12T00:08:30.793Z,4.80
2024-03-12T00:10:58.250Z,4.80
2024-03-12T00:13:25.176Z,4.80
2024-03-12T00:15:52.104Z,4.80
2024-03-12T00:18:19.099Z,4.80
2024-03-12T00:20:47.016Z,4.70
2024-03-12T00:23:14.089Z,4.70
2024-03-12T00:25:41.891Z,4.70
2024-03-12T00:28:09.906Z,4.70
2024-03-12T00:30:42.363Z,4.70
2024-03-12T00:33:09.667Z,4.70
2024-03-12T00:35:36.853Z,4.70
2024-03-12T00:38:06.572Z,4.70
2024-03-12T00:40:37.722Z,4.70
2024-03-12T00:43:07.190Z,4.70
2024-03-12T00:45:42.647Z,4.70
2024-03-12T00:48:12.341Z,4.70
2024-03-12T00:50:40.012Z,4.70
2024-03-12T00:53:08.816Z,4.70
2024-03-12T00:55:41.386Z,4.70
2024-03-12T00:58:12.348Z,4.70
2024-03-12T01:00:41.218Z,4.70
2024-03-12T01:03:13.058Z,4.70
2024-03-12T01:05:40.841Z,4.70
2024-03-12T01:08:08.717Z,4.70
2024-03-12T01:10:36.516Z,4.70
2024-03-12T01:13:08.270Z,4.70
2024-03-12T01:15:36.297Z,4.70
2024-03-12T01:18:04.445Z,4.70
2024-03-12T01:20:35.525Z,4.70
2024-03-12T01:23:03.029Z,4.70
2024-03-12T01:25:35.769Z,4.70
2024-03-12T01:28:03.207Z,4.70
2024-03-12T01:30:31.874Z,4.70
2024-03-12T01:32:59.556Z,4.70
2024-03-12T01:35:26.815Z,4.70
2024-03-12T01:37:54.532Z,4.70
2024-03-12T01:40:31.820Z,4.70
2024-03-12T01:43:03.452Z,4.70
2024-03-12T01:45:31.915Z,4.70
2024-03-12T01:48:00.575Z,4.70
2024-03-12T01:50:28.391Z,4.70
2024-03-12T01:52:59.506Z,4.70
2024-03-12T01:55:27.649Z,4.70
2024-03-12T01:57:55.171Z,4.70
2024-03-12T02:00:22.380Z,4.70
2024-03-12T02:02:53.627Z,4.70
2024-03-12T02:05:20.831Z,4.70
2024-03-12T02:07:50.105Z,4.70
2024-03-12T02:10:17.886Z,4.70
2024-03-12T02:12:47.775Z,4.70
2024-03-12T02:15:18.949Z,4.70
2024-03-12T02:17:46.660Z,4.70
2024-03-12T02:20:14.370Z,4.70
2024-03-12T02:22:41.670Z,4.70
2024-03-12T02:25:12.607Z,4.70
2024-03-12T02:27:41.312Z,4.70
2024-03-12T02:30:09.793Z,4.70
2024-03-12T02:32:37.802Z,4.70
2024-03-12T02:35:05.795Z,4.70
2024-03-12T02:37:32.713Z,4.70
2024-03-12T02:39:59.891Z,4.70
2024-03-12T02:42:26.814Z,4.70
2024-03-12T02:44:53.700Z,4.70
2024-03-12T02:47:21.882Z,4.70
2024-03-12T02:49:49.518Z,4.70
2024-03-12T02:52:16.379Z,4.70
2024-03-12T02:54:43.386Z,4.70
2024-03-12T02:57:10.307Z,4.70
2024-03-12T02:59:39.330Z,4.70
2024-03-12T03:02:06.582Z,4.70
2024-03-12T03:04:37.625Z,4.70
2024-03-12T03:07:08.618Z,4.70
2024-03-12T03:09:36.234Z,4.70
2024-03-12T03:12:03.137Z,4.70
2024-03-12T03:14:29.990Z,4.70
2024-03-12T03:16:56.978Z,4.70
2024-03-12T03:19:24.337Z,4.70
2024-03-12T03:21:51.399Z,4.70
2024-03-12T03:24:18.352Z,4.70
2024-03-12T03:26:45.347Z,4.70
2024-03-12T03:29:12.614Z,4.70
2024-03-12T03:31:42.744Z,4.60
2024-03-12T03:34:12.352Z,4.60
2024-03-12T03:36:40.909Z,4.60
2024-03-12T03:39:09.792Z,4.50
2024-03-12T03:41:36.786Z,4.50
2024-03-12T03:44:04.013Z,4.50
2024-03-12T03:46:30.974Z,4.50
2024-03-12T03:48:58.893Z,4.50
2024-03-12T03:51:27.079Z,4.50
2024-03-12T03:53:54.166Z,4.50
2024-03-12T03:56:22.886Z,4.50
2024-03-12T03:58:50.332Z,4.50
2024-03-12T04:01:17.485Z,4.50
2024-03-12T04:03:45.848Z,4.50
2024-03-12T04:06:13.441Z,4.40
2024-03-12T04:08:40.345Z,4.40
2024-03-12T04:11:07.230Z,4.40
2024-03-12T04:13:34.136Z,4.40
2024-03-12T04:16:01.203Z,4.40
2024-03-12T04:18:29.882Z,4.40
2024-03-12T04:20:57.278Z,4.40
2024-03-12T04:23:24.461Z,4.40
2024-03-12T04:25:51.811Z,4.40
2024-03-12T04:28:20.724Z,4.40
2024-03-12T04:30:50.147Z,4.40
2024-03-12T04:33:18.994Z,4.40
2024-03-12T04:35:46.569Z,4.40
2024-03-12T04:38:17.456Z,4.40
2024-03-12T04:40:45.039Z,4.40
2024-03-12T04:43:13.510Z,4.30
2024-03-12T04:45:43.417Z,4.30
2024-03-12T04:48:11.233Z,4.30
2024-03-12T04:50:38.630Z,4.30
2024-03-12T04:53:05.960Z,4.30
2024-03-12T04:55:37.994Z,4.20
2024-03-12T04:58:07.667Z,4.20
2024-03-12T05:00:34.766Z,4.20
2024-03-12T05:03:01.706Z,4.20
2024-03-12T05:05:28.618Z,4.20
2024-03-12T05:07:55.514Z,4.30
2024-03-12T05:10:22.681Z,4.30
2024-03-12T05:12:52.880Z,4.30
2024-03-12T05:15:21.186Z,4.30
2024-03-12T05:17:49.813Z,4.30
2024-03-12T05:20:19.079Z,4.20
2024-03-12T05:22:47.136Z,4.20
2024-03-12T05:25:24.022Z,4.10
2024-03-12T05:27:52.099Z,4.10
2024-03-12T05:30:21.922Z,4.20
2024-03-12T05:32:50.066Z,4.20
2024-03-12T05:35:26.405Z,4.20
2024-03-12T05:38:03.534Z,4.20
2024-03-12T05:40:41.539Z,4.20
2024-03-12T05:43:27.473Z,4.20
2024-03-12T05:46:12.873Z,4.20
2024-03-12T05:48:40.373Z,4.20
2024-03-12T05:51:08.717Z,4.20
2024-03-12T05:53:38.784Z,4.20
2024-03-12T05:56:11.049Z,4.20
2024-03-12T05:58:39.643Z,4.30
2024-03-12T06:01:07.049Z,4.30
2024-03-12T06:03:37.234Z,4.30
2024-03-12T06:06:08.891Z,4.30
2024-03-12T06:08:36.296Z,4.30
2024-03-12T06:11:03.602Z,4.30
2024-03-12T06:13:30.588Z,4.40
2024-03-12T06:15:58.458Z,4.40
2024-03-12T06:18:27.067Z,4.40
2024-03-12T06:20:54.038Z,4.40
2024-03-12T06:23:22.400Z,4.40
2024-03-12T06:25:49.450Z,4.40
2024-03-12T06:28:17.475Z,4.40
2024-03-12T06:30:44.925Z,4.40
2024-03-12T06:33:13.465Z,4.40
2024-03-12T06:35:42.821Z,4.40
2024-03-12T06:38:10.281Z,4.40
2024-03-12T06:40:37.164Z,4.40
2024-03-12T06:43:05.080Z,4.40
2024-03-12T06:45:32.809Z,4.50
2024-03-12T06:48:01.661Z,4.50
2024-03-12T06:50:28.653Z,4.50
2024-03-12T06:52:56.553Z,4.50
2024-03-12T06:55:26.445Z,4.50
2024-03-12T06:58:00.851Z,4.50
2024-03-12T07:00:33.201Z,4.50
2024-03-12T07:03:00.478Z,4.50
2024-03-12T07:05:30.717Z,4.50
2024-03-12T07:07:57.880Z,4.50
2024-03-12T07:10:26.494Z,4.50
2024-03-12T07:12:56.225Z,4.50
2024-03-12T07:15:23.120Z,4.50
2024-03-12T07:17:50.189Z,4.50
2024-03-12T07:20:17.254Z,4.60
2024-03-12T07:22:46.519Z,4.60
2024-03-12T07:25:14.652Z,4.70
2024-03-12T07:27:42.045Z,4.70
2024-03-12T07:30:14.347Z,4.70
2024-03-12T07:32:41.307Z,4.70
2024-03-12T07:35:08.369Z,4.70
2024-03-12T07:37:45.312Z,4.70
2024-03-12T07:40:17.453Z,4.70
2024-03-12T07:42:45.435Z,4.70
2024-03-12T07:45:15.887Z,4.70
2024-03-12T07:47:43.159Z,4.70
2024-03-12T07:50:12.678Z,4.80
2024-03-12T07:52:40.247Z,4.80
2024-03-12T07:55:07.734Z,4.80
2024-03-12T07:57:36.550Z,4.80
2024-03-12T08:00:12.674Z,4.90
2024-03-12T08:02:40.862Z,5.00
2024-03-12T08:05:07.747Z,5.10
2024-03-12T08:07:34.638Z,5.20
2024-03-12T08:10:01.560Z,5.20
2024-03-12T08:12:28.521Z,5.30
2024-03-12T08:14:55.399Z,5.30
2024-03-12T08:17:22.303Z,5.40
2024-03-12T08:19:49.634Z,5.40
2024-03-12T08:22:16.749Z,5.40
2024-03-12T08:24:45.178Z,5.50
2024-03-12T08:27:12.293Z,5.60
2024-03-12T08:29:39.232Z,5.60
2024-03-12T08:32:06.194Z,5.60
2024-03-12T08:34:33.127Z,5.60
2024-03-12T08:37:00.304Z,5.60
2024-03-12T08:39:30.965Z,5.70
2024-03-12T08:41:57.868Z,5.70
2024-03-12T08:44:25.075Z,5.80
2024-03-12T08:46:52.302Z,5.80
2024-03-12T08:49:19.335Z,5.80
2024-03-12T08:51:46.510Z,5.80
2024-03-12T08:54:15.368Z,5.80
2024-03-12T08:56:44.016Z,5.90
2024-03-12T08:59:15.224Z,5.90
2024-03-12T09:01:42.683Z,6.00
2024-03-12T09:04:10.088Z,6.10
2024-03-12T09:06:37.255Z,6.10
2024-03-12T09:09:05.923Z,6.20
2024-03-12T09:11:32.808Z,6.20
2024-03-12T09:14:00.760Z,6.10
2024-03-12T09:16:28.089Z,6.10
2024-03-12T09:18:55.089Z,6.10
2024-03-12T09:21:22.651Z,6.10
2024-03-12T09:23:56.937Z,6.10
2024-03-12T09:26:29.701Z,6.00
2024-03-12T09:28:56.911Z,6.00
2024-03-12T09:31:24.640Z,6.10
2024-03-12T09:33:52.989Z,6.10
2024-03-12T09:36:21.362Z,6.10
2024-03-12T09:38:52.239Z,6.10
2024-03-12T09:41:21.661Z,6.10
2024-03-12T09:43:49.842Z,6.10
2024-03-12T09:46:18.141Z,6.20
2024-03-12T09:48:46.903Z,6.20
2024-03-12T09:51:14.247Z,6.30
2024-03-12T09:53:43.335Z,6.30
2024-03-12T09:56:11.867Z,6.40
2024-03-12T09:58:39.533Z,6.40
2024-03-12T10:01:07.684Z,6.40
2024-03-12T10:03:38.499Z,6.40
2024-03-12T10:06:07.469Z,6.40
2024-03-12T10:08:35.841Z,6.40
2024-03-12T10:11:09.215Z,6.40
2024-03-12T10:13:37.539Z,6.50
2024-03-12T10:16:05.204Z,6.50
2024-03-12T10:18:34.494Z,6.50
2024-03-12T10:21:03.039Z,6.50
2024-03-12T10:23:33.098Z,6.50
2024-03-12T10:26:17.230Z,6.60
2024-03-12T10:28:51.790Z,6.60
2024-03-12T10:31:21.248Z,6.70
2024-03-12T10:33:51.549Z,6.70
2024-03-12T10:36:32.678Z,6.80
2024-03-12T10:39:00.082Z,6.80
2024-03-12T10:41:27.485Z,6.90
2024-03-12T10:44:07.151Z,6.90
2024-03-12T10:46:35.879Z,6.90
2024-03-12T10:49:03.393Z,6.90
2024-03-12T10:51:30.502Z,6.90
2024-03-12T10:53:58.788Z,6.90
2024-03-12T10:56:25.790Z,7.00
2024-03-12T10:58:55.796Z,7.00
2024-03-12T11:01:24.032Z,6.90
2024-03-12T11:03:56.528Z,6.90
2024-03-12T11:06:24.150Z,7.00
2024-03-12T11:08:51.094Z,7.00
2024-03-12T11:11:21.410Z,7.00
2024-03-12T11:13:51.026Z,7.00
2024-03-12T11:16:20.433Z,7.10
2024-03-12T11:18:50.768Z,7.10
2024-03-12T11:21:25.295Z,7.10
2024-03-12T11:23:57.497Z,7.10
2024-03-12T11:29:00.275Z,7.20
2024-03-12T11:31:37.794Z,7.20
2024-03-12T11:34:06.009Z,7.20
2024-03-12T11:36:33.933Z,7.20
2024-03-12T11:39:15.878Z,7.30
2024-03-12T11:42:07.006Z,7.30
2024-03-12T11:44:56.123Z,7.20
2024-03-12T11:47:38.196Z,7.20
2024-03-12T11:50:25.711Z,7.20
2024-03-12T11:52:52.658Z,7.20
2024-03-12T11:55:59.201Z,7.30
2024-03-12T11:58:38.691Z,7.40
2024-03-12T12:01:11.691Z,7.40
2024-03-12T12:03:38.845Z,7.40
2024-03-12T12:06:07.513Z,7.50
2024-03-12T12:08:42.746Z,7.50
2024-03-12T12:11:17.839Z,7.50
2024-03-12T12:13:48.392Z,7.50
2024-03-12T12:16:18.843Z,7.60
2024-03-12T12:18:46.242Z,7.60
2024-03-12T12:21:17.718Z,7.60
2024-03-12T12:23:48.528Z,7.70
2024-03-12T12:26:20.034Z,7.70
2024-03-12T12:28:47.938Z,7.70
2024-03-12T12:31:17.648Z,7.70
2024-03-12T12:33:50.621Z,7.70
2024-03-12T12:36:23.881Z,7.80
2024-03-12T12:38:55.388Z,7.80
2024-03-12T12:41:26.087Z,7.80
2024-03-12T12:43:54.625Z,7.80
2024-03-12T12:46:28.665Z,7.80
2024-03-12T12:48:56.378Z,7.90
2024-03-12T12:51:24.813Z,7.90
2024-03-12T12:54:04.838Z,7.90
2024-03-12T12:56:37.542Z,7.90
2024-03-12T12:59:11.941Z,7.90
2024-03-12T13:01:39.121Z,7.90
2024-03-12T13:04:26.266Z,7.90
2024-03-12T13:06:56.218Z,7.90
2024-03-12T13:09:31.431Z,7.90
2024-03-12T13:12:00.648Z,7.80
2024-03-12T13:14:27.660Z,7.80
2024-03-12T13:16:55.261Z,7.80
2024-03-12T13:19:23.886Z,7.90
2024-03-12T13:21:51.546Z,7.90
2024-03-12T13:24:20.695Z,7.90
2024-03-12T13:26:50.939Z,7.90
2024-03-12T13:29:17.923Z,7.90
2024-03-12T13:31:44.790Z,8.00
2024-03-12T13:34:11.908Z,8.00
2024-03-12T13:36:38.867Z,8.10
2024-03-12T13:39:07.552Z,8.10
2024-03-12T13:41:35.968Z,8.30
2024-03-12T13:44:03.015Z,8.40
2024-03-12T13:46:30.079Z,8.50
2024-03-12T13:49:14.593Z,8.60
2024-03-12T13:51:43.678Z,8.70
2024-03-12T13:54:11.159Z,8.70
2024-03-12T13:56:38.428Z,8.70
2024-03-12T13:59:05.907Z,8.70
2024-03-12T14:01:33.377Z,8.70
2024-03-12T14:04:00.854Z,8.70
2024-03-12T14:06:29.712Z,8.70
2024-03-12T14:08:57.445Z,8.60
2024-03-12T14:11:26.874Z,8.60
2024-03-12T14:13:58.218Z,8.60
2024-03-12T14:16:25.842Z,8.60
2024-03-12T14:18:53.786Z,8.60
2024-03-12T14:21:21.955Z,8.60
2024-03-12T14:23:49.131Z,8.50
2024-03-12T14:26:19.135Z,8.40
2024-03-12T14:28:47.100Z,8.40
2024-03-12T14:31:17.708Z,8.40
2024-03-12T14:33:44.822Z,8.30
2024-03-12T14:36:11.800Z,8.40
2024-03-12T14:38:39.064Z,8.40
2024-03-12T14:41:07.557Z,8.30
2024-03-12T14:43:35.317Z,8.30
2024-03-12T14:46:03.880Z,8.30
2024-03-12T14:48:30.899Z,8.20
2024-03-12T14:50:58.293Z,8.20
2024-03-12T14:53:25.154Z,8.20
2024-03-12T14:55:53.215Z,8.20
2024-03-12T14:58:20.248Z,8.20
2024-03-12T15:00:47.172Z,8.20
2024-03-12T15:03:14.399Z,8.20
2024-03-12T15:05:42.889Z,8.20
2024-03-12T15:08:12.591Z,8.10
2024-03-12T15:10:39.649Z,8.10
2024-03-12T15:13:07.066Z,8.10
2024-03-12T15:15:34.807Z,8.10
2024-03-12T15:18:02.328Z,8.10
2024-03-12T15:20:29.541Z,8.00
2024-03-12T15:22:57.837Z,8.00
2024-03-12T15:25:26.803Z,8.00
2024-03-12T15:27:54.154Z,8.00
2024-03-12T15:30:22.894Z,8.00
2024-03-12T15:32:50.236Z,8.00
2024-03-12T15:35:17.613Z,8.00
2024-03-12T15:37:44.635Z,7.90
2024-03-12T15:40:13.858Z,7.90
2024-03-12T15:42:45.599Z,7.90
2024-03-12T15:45:13.840Z,7.90
2024-03-12T15:47:44.050Z,7.80
2024-03-12T15:50:13.046Z,7.80
2024-03-12T15:52:40.418Z,7.80
2024-03-12T15:55:09.434Z,7.80
2024-03-12T15:57:40.006Z,7.80
2024-03-12T16:00:09.415Z,7.70
2024-03-12T16:02:36.384Z,7.70
2024-03-12T16:05:06.487Z,7.70
2024-03-12T16:07:37.170Z,7.70
2024-03-12T16:10:09.634Z,7.70
2024-03-12T16:12:38.220Z,7.70
2024-03-12T16:15:07.059Z,7.60
2024-03-12T16:17:36.004Z,7.60
2024-03-12T16:20:13.497Z,7.60
2024-03-12T16:22:41.524Z,7.50
2024-03-12T16:25:09.097Z,7.50
2024-03-12T16:27:36.141Z,7.50
2024-03-12T16:30:04.681Z,7.50
2024-03-12T16:32:32.096Z,7.50
2024-03-12T16:34:59.331Z,7.40
2024-03-12T16:37:26.308Z,7.40
2024-03-12T16:39:53.216Z,7.40
2024-03-12T16:42:21.770Z,7.30
2024-03-12T16:44:51.034Z,7.30
2024-03-12T16:47:18.057Z,7.30
2024-03-12T16:49:46.530Z,7.30
2024-03-12T16:52:13.718Z,7.20
2024-03-12T16:54:40.893Z,7.20
2024-03-12T16:57:08.931Z,7.20
2024-03-12T16:59:36.283Z,7.20
2024-03-12T17:02:09.196Z,7.20
2024-03-12T17:04:39.909Z,7.20
2024-03-12T17:07:10.489Z,7.10
2024-03-12T17:09:38.290Z,7.10
2024-03-12T17:12:06.242Z,7.10
2024-03-12T17:14:36.021Z,7.10
2024-03-12T17:17:07.926Z,7.10
2024-03-12T17:19:36.906Z,7.00
2024-03-12T17:22:06.975Z,7.00
2024-03-12T17:24:35.443Z,7.00
2024-03-12T17:27:06.193Z,7.00
2024-03-12T17:29:33.330Z,7.00
2024-03-12T17:32:00.599Z,6.90
2024-03-12T17:34:29.138Z,6.90
2024-03-12T17:36:58.129Z,6.90
2024-03-12T17:39:25.142Z,6.90
2024-03-12T17:41:53.039Z,6.90
2024-03-12T17:44:20.192Z,6.90
2024-03-12T17:46:48.363Z,6.90
2024-03-12T17:49:19.821Z,6.90
2024-03-12T17:51:47.084Z,6.90
2024-03-12T17:54:17.291Z,6.90
2024-03-12T17:56:48.210Z,6.90
2024-03-12T17:59:19.808Z,6.80
2024-03-12T18:01:47.565Z,6.80
2024-03-12T18:04:15.328Z,6.80
2024-03-12T18:06:43.720Z,6.80
2024-03-12T18:09:15.533Z,6.80
2024-03-12T18:11:43.691Z,6.70
2024-03-12T18:14:11.203Z,6.70
2024-03-12T18:16:38.819Z,6.70
2024-03-12T18:19:07.002Z,6.70
2024-03-12T18:21:34.413Z,6.70
2024-03-12T18:24:01.731Z,6.70
2024-03-12T18:26:28.819Z,6.70
2024-03-12T18:28:57.839Z,6.70
2024-03-12T18:31:24.900Z,6.70
2024-03-12T18:33:51.990Z,6.70
2024-03-12T18:36:19.406Z,6.70
2024-03-12T18:38:46.350Z,6.60
2024-03-12T18:41:15.007Z,6.60
2024-03-12T18:43:41.973Z,6.60
2024-03-12T18:46:09.438Z,6.60
2024-03-12T18:48:37.105Z,6.60
2024-03-12T18:51:05.643Z,6.60
2024-03-12T18:53:32.832Z,6.60
2024-03-12T18:56:01.015Z,6.60
2024-03-12T18:58:28.476Z,6.60
2024-03-12T19:00:56.829Z,6.60
2024-03-12T19:03:28.009Z,6.50
2024-03-12T19:05:55.417Z,6.50
2024-03-12T19:08:22.726Z,6.50
2024-03-12T19:10:50.051Z,6.50
2024-03-12T19:13:17.448Z,6.50
2024-03-12T19:15:45.447Z,6.50
2024-03-12T19:18:20.725Z,6.50
2024-03-12T19:20:49.073Z,6.50
2024-03-12T19:23:17.893Z,6.50
2024-03-12T19:25:44.922Z,6.50
2024-03-12T19:28:12.042Z,6.50
2024-03-12T19:30:39.743Z,6.50
2024-03-12T19:33:07.639Z,6.50
2024-03-12T19:35:34.783Z,6.50
2024-03-12T19:38:01.977Z,6.50
2024-03-12T19:40:29.213Z,6.40
2024-03-12T19:42:57.986Z,6.40
2024-03-12T19:45:28.663Z,6.40
2024-03-12T19:47:57.864Z,6.40
2024-03-12T19:50:28.449Z,6.50
2024-03-12T19:52:56.668Z,6.40
2024-03-12T19:55:26.574Z,6.50
2024-03-12T19:57:57.752Z,6.50
2024-03-12T20:00:27.397Z,6.40
2024-03-12T20:02:55.932Z,6.50
2024-03-12T20:05:23.759Z,6.40
2024-03-12T20:07:52.145Z,6.50
2024-03-12T20:10:19.193Z,6.40
2024-03-12T20:12:50.566Z,6.40
2024-03-12T20:15:18.776Z,6.40
2024-03-12T20:17:47.834Z,6.40
2024-03-12T20:20:15.938Z,6.40
2024-03-12T20:22:43.653Z,6.40
2024-03-12T20:25:12.732Z,6.40
2024-03-12T20:27:39.786Z,6.40
2024-03-12T20:30:07.560Z,6.40
2024-03-12T20:32:36.337Z,6.40
2024-03-12T20:35:03.330Z,6.40
2024-03-12T20:37:30.426Z,6.50
2024-03-12T20:39:58.255Z,6.50
2024-03-12T20:42:29.313Z,6.50
2024-03-12T20:44:57.483Z,6.50
2024-03-12T20:47:24.362Z,6.50
2024-03-12T20:49:51.237Z,6.50
2024-03-12T20:52:22.001Z,6.50
2024-03-12T20:54:49.172Z,6.50
2024-03-12T20:57:17.694Z,6.50
2024-03-12T20:59:45.557Z,6.50
2024-03-12T21:02:15.298Z,6.50
2024-03-12T21:04:42.617Z,6.50
2024-03-12T21:07:12.247Z,6.50
2024-03-12T21:09:39.799Z,6.50
2024-03-12T21:12:06.842Z,6.50
2024-03-12T21:14:33.739Z,6.50
2024-03-12T21:17:04.360Z,6.50
2024-03-12T21:19:32.479Z,6.50
2024-03-12T21:22:03.208Z,6.50
2024-03-12T21:24:35.381Z,6.50
2024-03-12T21:27:03.749Z,6.50
2024-03-12T21:29:30.726Z,6.50
2024-03-12T21:31:59.323Z,6.50
2024-03-12T21:34:26.397Z,6.50
2024-03-12T21:36:53.331Z,6.50
2024-03-12T21:39:23.277Z,6.50
2024-03-12T21:41:50.315Z,6.40
2024-03-12T21:44:20.381Z,6.40
2024-03-12T21:46:47.834Z,6.40
2024-03-12T21:49:14.880Z,6.40
2024-03-12T21:51:41.950Z,6.40
2024-03-12T21:54:08.888Z,6.50
2024-03-12T21:56:35.792Z,6.50
2024-03-12T21:59:02.774Z,6.50
2024-03-12T22:01:30.465Z,6.50
2024-03-12T22:03:57.425Z,6.50
2024-03-12T22:06:24.717Z,6.50
2024-03-12T22:08:52.237Z,6.50
2024-03-12T22:11:20.614Z,6.50
2024-03-12T22:13:48.351Z,6.50
2024-03-12T22:16:16.981Z,6.50
2024-03-12T22:18:44.870Z,6.50
2024-03-12T22:21:12.499Z,6.50
2024-03-12T22:23:44.598Z,6.50
2024-03-12T22:26:18.890Z,6.50
2024-03-12T22:28:47.538Z,6.50
2024-03-12T22:31:16.185Z,6.40
2024-03-12T22:33:43.679Z,6.40
2024-03-12T22:36:13.408Z,6.40
2024-03-12T22:38:40.632Z,6.40
2024-03-12T22:41:09.020Z,6.40
2024-03-12T22:43:37.750Z,6.40
2024-03-12T22:46:11.330Z,6.40
2024-03-12T22:48:38.801Z,6.40
2024-03-12T22:51:06.312Z,6.40
2024-03-12T22:53:33.427Z,6.50
2024-03-12T22:56:00.583Z,6.50
2024-03-12T22:58:28.590Z,6.50
2024-03-12T23:00:55.941Z,6.60
2024-03-12T23:03:23.630Z,6.60
2024-03-12T23:05:50.707Z,6.70
2024-03-12T23:08:20.553Z,6.70
2024-03-12T23:10:47.870Z,6.70
2024-03-12T23:13:16.988Z,6.80
2024-03-12T23:15:44.357Z,6.80
2024-03-12T23:18:15.443Z,6.80
2024-03-12T23:20:44.336Z,6.80
2024-03-12T23:23:11.556Z,6.80
2024-03-12T23:25:38.545Z,6.80
2024-03-12T23:28:05.699Z,6.70
2024-03-12T23:30:36.014Z,6.70
2024-03-12T23:33:03.341Z,6.70
2024-03-12T23:35:30.781Z,6.70
2024-03-12T23:38:01.287Z,6.60
2024-03-12T23:40:29.547Z,6.50
2024-03-12T23:42:57.180Z,6.50
2024-03-12T23:45:24.346Z,6.40
2024-03-12T23:47:52.689Z,6.40
2024-03-12T23:50:19.981Z,6.40
2024-03-12T23:52:49.922Z,6.40
2024-03-12T23:55:17.253Z,6.30
2024-03-12T23:57:44.381Z,6.30
